Grizzly Air Cargo 5367


PACD
Cold Bay Airport
Cold Bay, Alaska, US
PANC
Ted Stevens Anchorage International Airport
Anchorage, Alaska, US

Activity Log

Date Flight Route Aircraft Duration
No Flights Yet

Route Details

Aircraft Information
Primary: Boeing 727-200F
Backup: Boeing 737-800BCF
Route Data
Distance: 623nm
Sched. Duration: 1h 50m
Avg. Duration: 0h 00m (-150m)
Times Flown: 0
Recm'd Route: CDB J115 TED
Planned Altitude: 31,000ft
Origin Wx: PACD 071553Z 28034G40KT 2SM -SN BR SCT018 OVC027 M02/M04 A2991 RMK AO2 PK WND 28040/1552 UPB18E27SNE17B27 SLP129 P0000 T10171039
Dest. Wx: PANC 071553Z 06003KT 10SM CLR M07/M14 A3011 RMK AO2 SLP199 T10721144
Notes:

Financial History
Total Freight: 0lbs
Average Load: 0lbs/flt
Fuel Used: 0lbs
Avg. Fuel Used: 0lbs/flt
Fuel Expense: $0
Avg. Fuel Expense: $0
Avg. Fuel Cost: $0/lbs
Total Gross Income: $0
Pilot Pay: $0
Total Expenses: $0
Total Revenue: $0
Average Revenue: $0